sensor_id;sensor_type;location;lat;lon;timestamp;pressure;altitude;pressure_sealevel;temperature;humidity
6835;BME280;3455;42.150;24.734;2023-06-10T00:00:47;68162.19;;;25.93;56.79
6835;BME280;3455;42.150;24.734;2023-06-10T00:03:14;68127.09;;;25.62;56.98
6835;BME280;3455;42.150;24.734;2023-06-10T00:05:42;68142.59;;;25.94;57.08
6835;BME280;3455;42.150;24.734;2023-06-10T00:08:09;68082.94;;;25.42;57.98
6835;BME280;3455;42.150;24.734;2023-06-10T00:10:37;68106.03;;;25.44;57.91
6835;BME280;3455;42.150;24.734;2023-06-10T00:13:04;68086.38;;;25.40;58.09
6835;BME280;3455;42.150;24.734;2023-06-10T00:15:33;68087.22;;;25.39;58.15
6835;BME280;3455;42.150;24.734;2023-06-10T00:18:00;68139.94;;;25.74;56.51
6835;BME280;3455;42.150;24.734;2023-06-10T00:20:27;68028.88;;;24.76;59.46
6835;BME280;3455;42.150;24.734;2023-06-10T00:22:58;68045.81;;;25.28;58.58
6835;BME280;3455;42.150;24.734;2023-06-10T00:25:26;68034.75;;;25.02;59.00
6835;BME280;3455;42.150;24.734;2023-06-10T00:27:53;68039.16;;;25.08;58.53
6835;BME280;3455;42.150;24.734;2023-06-10T00:30:20;68069.41;;;25.25;58.39
6835;BME280;3455;42.150;24.734;2023-06-10T00:32:47;68096.69;;;25.36;57.54
6835;BME280;3455;42.150;24.734;2023-06-10T00:35:13;68030.06;;;24.77;59.73
6835;BME280;3455;42.150;24.734;2023-06-10T00:37:40;68074.44;;;25.16;58.48
6835;BME280;3455;42.150;24.734;2023-06-10T00:40:09;68071.53;;;25.14;58.53
6835;BME280;3455;42.150;24.734;2023-06-10T00:42:36;68015.28;;;24.92;58.80
6835;BME280;3455;42.150;24.734;2023-06-10T00:45:04;68066.28;;;25.09;58.47
6835;BME280;3455;42.150;24.734;2023-06-10T00:47:31;68062.69;;;25.01;58.53
6835;BME280;3455;42.150;24.734;2023-06-10T00:49:58;68006.09;;;24.93;59.27
6835;BME280;3455;42.150;24.734;2023-06-10T00:52:28;67996.47;;;24.66;60.00
6835;BME280;3455;42.150;24.734;2023-06-10T00:54:55;67987.19;;;24.62;60.02
6835;BME280;3455;42.150;24.734;2023-06-10T00:57:23;68022.66;;;24.84;59.36
6835;BME280;3455;42.150;24.734;2023-06-10T00:59:51;67984.41;;;24.69;60.04
6835;BME280;3455;42.150;24.734;2023-06-10T01:02:17;67952.91;;;24.25;61.03
6835;BME280;3455;42.150;24.734;2023-06-10T01:04:44;67960.50;;;24.16;61.43
6835;BME280;3455;42.150;24.734;2023-06-10T01:07:17;68046.63;;;24.69;60.04
6835;BME280;3455;42.150;24.734;2023-06-10T01:09:54;67992.63;;;24.44;60.56
6835;BME280;3455;42.150;24.734;2023-06-10T01:12:29;67922.59;;;24.03;62.25
6835;BME280;3455;42.150;24.734;2023-06-10T01:14:58;67955.88;;;24.33;60.83
6835;BME280;3455;42.150;24.734;2023-06-10T01:17:26;67991.47;;;24.43;60.42
6835;BME280;3455;42.150;24.734;2023-06-10T01:19:54;68026.25;;;24.92;58.91
6835;BME280;3455;42.150;24.734;2023-06-10T01:22:23;68061.81;;;24.82;59.33
6835;BME280;3455;42.150;24.734;2023-06-10T01:24:51;68036.44;;;24.99;58.30
6835;BME280;3455;42.150;24.734;2023-06-10T01:27:21;68102.34;;;24.59;59.87
6835;BME280;3455;42.150;24.734;2023-06-10T01:29:53;68006.19;;;24.81;59.14
6835;BME280;3455;42.150;24.734;2023-06-10T01:32:27;68033.59;;;24.64;59.73
6835;BME280;3455;42.150;24.734;2023-06-10T01:34:56;67996.16;;;24.47;60.43
6835;BME280;3455;42.150;24.734;2023-06-10T01:37:26;67991.41;;;24.75;59.35
6835;BME280;3455;42.150;24.734;2023-06-10T01:39:55;68083.84;;;25.24;57.97
6835;BME280;3455;42.150;24.734;2023-06-10T01:42:23;68023.97;;;24.95;58.35
6835;BME280;3455;42.150;24.734;2023-06-10T01:44:50;68000.50;;;24.85;58.82
6835;BME280;3455;42.150;24.734;2023-06-10T01:47:16;68068.63;;;25.11;58.06
6835;BME280;3455;42.150;24.734;2023-06-10T01:49:43;68047.56;;;24.93;58.09
6835;BME280;3455;42.150;24.734;2023-06-10T01:52:10;67989.00;;;24.68;58.79
6835;BME280;3455;42.150;24.734;2023-06-10T01:54:38;68079.13;;;25.20;57.89
6835;BME280;3455;42.150;24.734;2023-06-10T01:57:05;68035.16;;;25.09;57.93
6835;BME280;3455;42.150;24.734;2023-06-10T01:59:32;68027.56;;;25.02;58.28
6835;BME280;3455;42.150;24.734;2023-06-10T02:01:58;68051.06;;;24.96;58.17
6835;BME280;3455;42.150;24.734;2023-06-10T02:04:25;68017.16;;;24.82;58.33
6835;BME280;3455;42.150;24.734;2023-06-10T02:06:52;68031.16;;;24.74;58.58
6835;BME280;3455;42.150;24.734;2023-06-10T02:09:18;67947.03;;;24.36;59.87
6835;BME280;3455;42.150;24.734;2023-06-10T02:11:46;68008.66;;;24.72;59.05
6835;BME280;3455;42.150;24.734;2023-06-10T02:14:13;68033.53;;;24.80;58.46
6835;BME280;3455;42.150;24.734;2023-06-10T02:16:40;68091.72;;;25.13;57.54
6835;BME280;3455;42.150;24.734;2023-06-10T02:19:07;68108.59;;;25.23;57.20
6835;BME280;3455;42.150;24.734;2023-06-10T02:21:33;68063.94;;;25.07;57.56
6835;BME280;3455;42.150;24.734;2023-06-10T02:24:00;68020.31;;;24.82;58.53
6835;BME280;3455;42.150;24.734;2023-06-10T02:26:28;68081.84;;;25.09;57.87
6835;BME280;3455;42.150;24.734;2023-06-10T02:28:56;68083.84;;;25.24;57.08
6835;BME280;3455;42.150;24.734;2023-06-10T02:31:23;68092.03;;;25.32;56.55
6835;BME280;3455;42.150;24.734;2023-06-10T02:33:50;68107.06;;;25.36;57.03
6835;BME280;3455;42.150;24.734;2023-06-10T02:36:17;68083.84;;;25.24;56.87
6835;BME280;3455;42.150;24.734;2023-06-10T02:38:44;68095.38;;;25.25;56.82
6835;BME280;3455;42.150;24.734;2023-06-10T02:41:10;68081.47;;;25.22;56.66
6835;BME280;3455;42.150;24.734;2023-06-10T02:43:37;68060.72;;;25.22;57.22
6835;BME280;3455;42.150;24.734;2023-06-10T02:46:06;68131.19;;;25.30;57.35
6835;BME280;3455;42.150;24.734;2023-06-10T02:48:40;68108.50;;;25.35;57.30
6835;BME280;3455;42.150;24.734;2023-06-10T02:51:08;68075.63;;;25.17;57.09
6835;BME280;3455;42.150;24.734;2023-06-10T02:53:34;68107.06;;;25.36;56.66
6835;BME280;3455;42.150;24.734;2023-06-10T02:56:01;68111.09;;;25.35;56.14
6835;BME280;3455;42.150;24.734;2023-06-10T02:58:28;68155.38;;;25.64;55.79
6835;BME280;3455;42.150;24.734;2023-06-10T03:00:55;68171.66;;;25.90;55.03
6835;BME280;3455;42.150;24.734;2023-06-10T03:03:23;68182.16;;;25.79;55.29
6835;BME280;3455;42.150;24.734;2023-06-10T03:05:51;68159.03;;;25.77;55.27
6835;BME280;3455;42.150;24.734;2023-06-10T03:08:17;68122.41;;;25.58;55.44
6835;BME280;3455;42.150;24.734;2023-06-10T03:10:44;68153.56;;;25.58;55.63
6835;BME280;3455;42.150;24.734;2023-06-10T03:13:11;68122.19;;;25.44;55.79
6835;BME280;3455;42.150;24.734;2023-06-10T03:15:37;68141.47;;;25.61;55.56
6835;BME280;3455;42.150;24.734;2023-06-10T03:18:06;68145.00;;;25.64;55.11
6835;BME280;3455;42.150;24.734;2023-06-10T03:20:34;68176.88;;;25.74;55.24
6835;BME280;3455;42.150;24.734;2023-06-10T03:23:04;68112.31;;;25.40;55.54
6835;BME280;3455;42.150;24.734;2023-06-10T03:25:31;68130.84;;;25.43;55.79
6835;BME280;3455;42.150;24.734;2023-06-10T03:27:58;68135.78;;;25.45;55.90
6835;BME280;3455;42.150;24.734;2023-06-10T03:30:26;68149.00;;;25.63;55.38
6835;BME280;3455;42.150;24.734;2023-06-10T03:32:53;68158.66;;;25.90;54.96
6835;BME280;3455;42.150;24.734;2023-06-10T03:35:20;68167.47;;;25.82;54.32
6835;BME280;3455;42.150;24.734;2023-06-10T03:37:49;68164.78;;;26.14;53.71
6835;BME280;3455;42.150;24.734;2023-06-10T03:40:15;68248.97;;;26.06;53.87
6835;BME280;3455;42.150;24.734;2023-06-10T03:42:42;68191.75;;;26.01;53.49
6835;BME280;3455;42.150;24.734;2023-06-10T03:45:10;68184.19;;;25.99;54.26
6835;BME280;3455;42.150;24.734;2023-06-10T03:47:38;68251.16;;;26.35;52.74
6835;BME280;3455;42.150;24.734;2023-06-10T03:50:06;68205.22;;;26.13;53.31
6835;BME280;3455;42.150;24.734;2023-06-10T03:52:34;68211.38;;;26.20;53.56
6835;BME280;3455;42.150;24.734;2023-06-10T03:55:03;68268.44;;;26.32;52.75
6835;BME280;3455;42.150;24.734;2023-06-10T03:57:30;68289.06;;;26.59;52.49
6835;BME280;3455;42.150;24.734;2023-06-10T03:59:57;68338.16;;;26.93;51.76
6835;BME280;3455;42.150;24.734;2023-06-10T04:02:24;68337.75;;;27.06;51.02
6835;BME280;3455;42.150;24.734;2023-06-10T04:04:51;68277.38;;;26.49;51.50
6835;BME280;3455;42.150;24.734;2023-06-10T04:07:18;68305.63;;;26.83;51.09
6835;BME280;3455;42.150;24.734;2023-06-10T04:09:45;68312.91;;;26.87;50.77
6835;BME280;3455;42.150;24.734;2023-06-10T04:12:14;68338.81;;;26.98;50.85
6835;BME280;3455;42.150;24.734;2023-06-10T04:14:42;68327.47;;;27.15;49.71
6835;BME280;3455;42.150;24.734;2023-06-10T04:17:08;68368.91;;;27.38;49.13
6835;BME280;3455;42.150;24.734;2023-06-10T04:19:36;68415.38;;;27.51;48.96
6835;BME280;3455;42.150;24.734;2023-06-10T04:22:03;68445.84;;;27.57;48.73
6835;BME280;3455;42.150;24.734;2023-06-10T04:24:30;68368.09;;;27.44;49.34
6835;BME280;3455;42.150;24.734;2023-06-10T04:26:57;68379.16;;;27.29;49.04
6835;BME280;3455;42.150;24.734;2023-06-10T04:29:25;68457.44;;;27.79;48.38
6835;BME280;3455;42.150;24.734;2023-06-10T04:31:52;68379.44;;;27.47;48.61
6835;BME280;3455;42.150;24.734;2023-06-10T04:34:18;68417.19;;;27.57;47.94
6835;BME280;3455;42.150;24.734;2023-06-10T04:36:45;68479.16;;;27.98;46.83
6835;BME280;3455;42.150;24.734;2023-06-10T04:39:12;68434.13;;;27.68;47.60
6835;BME280;3455;42.150;24.734;2023-06-10T04:41:38;68414.09;;;27.62;47.71
6835;BME280;3455;42.150;24.734;2023-06-10T04:44:05;68479.34;;;28.12;46.64
6835;BME280;3455;42.150;24.734;2023-06-10T04:46:33;68531.72;;;28.26;46.69
6835;BME280;3455;42.150;24.734;2023-06-10T04:49:01;68513.94;;;28.42;45.78
6835;BME280;3455;42.150;24.734;2023-06-10T04:51:27;68522.00;;;28.35;46.11
6835;BME280;3455;42.150;24.734;2023-06-10T04:53:54;68649.31;;;29.01;44.79
6835;BME280;3455;42.150;24.734;2023-06-10T04:56:21;68594.56;;;29.06;44.55
6835;BME280;3455;42.150;24.734;2023-06-10T04:58:48;68733.81;;;29.66;43.05
6835;BME280;3455;42.150;24.734;2023-06-10T05:01:14;68717.59;;;29.91;42.06
6835;BME280;3455;42.150;24.734;2023-06-10T05:03:43;68849.75;;;30.31;41.98
6835;BME280;3455;42.150;24.734;2023-06-10T05:06:09;68648.72;;;29.42;43.49
6835;BME280;3455;42.150;24.734;2023-06-10T05:08:36;68628.19;;;29.03;44.57
6835;BME280;3455;42.150;24.734;2023-06-10T05:11:03;68745.31;;;29.58;43.93
6835;BME280;3455;42.150;24.734;2023-06-10T05:13:29;68699.31;;;29.70;43.62
6835;BME280;3455;42.150;24.734;2023-06-10T05:15:56;68721.16;;;29.73;43.47
6835;BME280;3455;42.150;24.734;2023-06-10T05:18:23;68705.88;;;29.60;44.96
6835;BME280;3455;42.150;24.734;2023-06-10T05:20:51;68727.78;;;29.93;44.44
6835;BME280;3455;42.150;24.734;2023-06-10T05:23:19;68717.31;;;29.47;45.08
6835;BME280;3455;42.150;24.734;2023-06-10T05:25:46;68767.69;;;29.77;43.72
6835;BME280;3455;42.150;24.734;2023-06-10T05:28:13;68694.09;;;29.49;44.53
6835;BME280;3455;42.150;24.734;2023-06-10T05:30:40;68733.16;;;29.81;43.19
6835;BME280;3455;42.150;24.734;2023-06-10T05:33:07;68804.31;;;30.23;42.38
6835;BME280;3455;42.150;24.734;2023-06-10T05:35:33;68767.44;;;30.04;42.29
6835;BME280;3455;42.150;24.734;2023-06-10T05:38:02;68877.31;;;30.45;41.82
6835;BME280;3455;42.150;24.734;2023-06-10T05:40:29;68814.03;;;30.54;41.50
6835;BME280;3455;42.150;24.734;2023-06-10T05:42:56;68767.41;;;30.00;41.90
6835;BME280;3455;42.150;24.734;2023-06-10T05:45:23;68699.56;;;29.68;42.27
6835;BME280;3455;42.150;24.734;2023-06-10T05:47:50;68817.97;;;30.44;41.02
6835;BME280;3455;42.150;24.734;2023-06-10T05:50:17;68783.88;;;30.14;41.31
6835;BME280;3455;42.150;24.734;2023-06-10T05:52:44;68678.19;;;29.31;43.21
6835;BME280;3455;42.150;24.734;2023-06-10T05:55:12;68714.47;;;29.74;42.48
6835;BME280;3455;42.150;24.734;2023-06-10T05:57:41;68742.81;;;29.87;42.36
6835;BME280;3455;42.150;24.734;2023-06-10T06:00:09;68825.31;;;30.27;42.27
6835;BME280;3455;42.150;24.734;2023-06-10T06:02:35;68794.31;;;30.35;41.97
6835;BME280;3455;42.150;24.734;2023-06-10T06:05:02;68775.41;;;30.14;42.54
6835;BME280;3455;42.150;24.734;2023-06-10T06:07:29;68882.50;;;30.41;42.46
6835;BME280;3455;42.150;24.734;2023-06-10T06:09:56;68881.16;;;30.72;41.87
6835;BME280;3455;42.150;24.734;2023-06-10T06:12:25;68936.31;;;31.06;40.74
6835;BME280;3455;42.150;24.734;2023-06-10T06:14:53;68799.81;;;30.33;42.63
6835;BME280;3455;42.150;24.734;2023-06-10T06:17:20;68948.06;;;30.91;41.33
6835;BME280;3455;42.150;24.734;2023-06-10T06:19:46;68907.41;;;30.76;41.97
6835;BME280;3455;42.150;24.734;2023-06-10T06:22:13;68850.03;;;30.49;42.27
6835;BME280;3455;42.150;24.734;2023-06-10T06:24:40;68879.25;;;30.61;42.11
6835;BME280;3455;42.150;24.734;2023-06-10T06:27:07;68875.91;;;30.72;41.76
6835;BME280;3455;42.150;24.734;2023-06-10T06:29:35;68917.53;;;30.94;41.66
6835;BME280;3455;42.150;24.734;2023-06-10T06:32:02;68963.63;;;31.02;41.35
6835;BME280;3455;42.150;24.734;2023-06-10T06:34:29;68980.78;;;31.22;41.14
6835;BME280;3455;42.150;24.734;2023-06-10T06:36:55;68990.88;;;31.40;40.60
6835;BME280;3455;42.150;24.734;2023-06-10T06:39:22;68953.16;;;31.02;40.89
6835;BME280;3455;42.150;24.734;2023-06-10T06:41:49;69090.16;;;31.99;39.09
6835;BME280;3455;42.150;24.734;2023-06-10T06:44:16;69157.41;;;32.37;37.84
6835;BME280;3455;42.150;24.734;2023-06-10T06:46:44;69193.47;;;32.52;38.03
6835;BME280;3455;42.150;24.734;2023-06-10T06:49:11;69313.59;;;33.29;36.60
6835;BME280;3455;42.150;24.734;2023-06-10T06:51:38;69486.84;;;34.34;34.19
6835;BME280;3455;42.150;24.734;2023-06-10T06:54:04;69680.22;;;34.92;34.47
6835;BME280;3455;42.150;24.734;2023-06-10T06:56:31;69698.53;;;35.44;32.66
6835;BME280;3455;42.150;24.734;2023-06-10T06:58:58;69779.44;;;35.87;31.82
6835;BME280;3455;42.150;24.734;2023-06-10T07:01:25;69973.78;;;36.77;30.42
6835;BME280;3455;42.150;24.734;2023-06-10T07:03:53;69981.56;;;36.89;30.26
6835;BME280;3455;42.150;24.734;2023-06-10T07:06:20;69872.06;;;36.26;31.66
6835;BME280;3455;42.150;24.734;2023-06-10T07:08:46;69752.91;;;35.78;31.38
6835;BME280;3455;42.150;24.734;2023-06-10T07:13:48;69465.81;;;34.13;34.18
6835;BME280;3455;42.150;24.734;2023-06-10T07:16:15;69341.06;;;33.30;35.59
6835;BME280;3455;42.150;24.734;2023-06-10T07:18:42;69391.50;;;33.88;34.57
6835;BME280;3455;42.150;24.734;2023-06-10T07:21:10;69457.31;;;34.13;34.93
6835;BME280;3455;42.150;24.734;2023-06-10T07:23:41;69490.97;;;34.38;33.77
6835;BME280;3455;42.150;24.734;2023-06-10T07:26:08;69996.72;;;36.79;30.58
6835;BME280;3455;42.150;24.734;2023-06-10T07:28:36;70409.50;;;39.07;27.33
6835;BME280;3455;42.150;24.734;2023-06-10T07:31:03;70511.41;;;39.40;27.14
6835;BME280;3455;42.150;24.734;2023-06-10T07:33:30;70534.06;;;39.55;26.58
6835;BME280;3455;42.150;24.734;2023-06-10T07:35:56;70770.50;;;40.89;24.48
6835;BME280;3455;42.150;24.734;2023-06-10T07:38:25;71059.03;;;42.27;23.00
6835;BME280;3455;42.150;24.734;2023-06-10T07:40:51;71056.78;;;42.13;23.72
6835;BME280;3455;42.150;24.734;2023-06-10T07:43:18;70906.63;;;41.74;24.18
6835;BME280;3455;42.150;24.734;2023-06-10T07:45:45;70793.25;;;40.67;24.63
6835;BME280;3455;42.150;24.734;2023-06-10T07:48:12;70860.34;;;41.25;24.25
6835;BME280;3455;42.150;24.734;2023-06-10T07:50:39;70978.63;;;41.58;23.09
6835;BME280;3455;42.150;24.734;2023-06-10T07:53:05;71026.00;;;41.98;22.84
6835;BME280;3455;42.150;24.734;2023-06-10T07:55:34;70443.56;;;39.41;25.66
6835;BME280;3455;42.150;24.734;2023-06-10T07:58:00;70453.59;;;39.40;26.12
6835;BME280;3455;42.150;24.734;2023-06-10T08:00:27;70728.19;;;40.66;24.55
6835;BME280;3455;42.150;24.734;2023-06-10T08:02:54;70919.75;;;41.39;23.61
6835;BME280;3455;42.150;24.734;2023-06-10T08:05:21;71101.56;;;42.38;22.29
6835;BME280;3455;42.150;24.734;2023-06-10T08:07:47;70983.84;;;41.90;22.63
6835;BME280;3455;42.150;24.734;2023-06-10T08:10:14;70729.81;;;40.54;23.45
6835;BME280;3455;42.150;24.734;2023-06-10T08:12:42;70666.25;;;40.32;24.52
6835;BME280;3455;42.150;24.734;2023-06-10T08:15:10;70425.31;;;39.43;24.78
6835;BME280;3455;42.150;24.734;2023-06-10T08:17:37;70715.69;;;40.60;24.06
6835;BME280;3455;42.150;24.734;2023-06-10T08:20:05;70507.63;;;39.64;24.85
6835;BME280;3455;42.150;24.734;2023-06-10T08:22:32;70394.81;;;39.12;25.97
6835;BME280;3455;42.150;24.734;2023-06-10T08:25:00;70581.34;;;40.00;23.97
6835;BME280;3455;42.150;24.734;2023-06-10T08:27:26;70645.16;;;40.45;24.25
6835;BME280;3455;42.150;24.734;2023-06-10T08:29:54;70930.34;;;41.76;23.36
6835;BME280;3455;42.150;24.734;2023-06-10T08:32:21;70860.34;;;41.25;23.16
6835;BME280;3455;42.150;24.734;2023-06-10T08:34:48;70635.94;;;40.40;23.62
6835;BME280;3455;42.150;24.734;2023-06-10T08:37:15;71015.22;;;41.89;22.17
6835;BME280;3455;42.150;24.734;2023-06-10T08:39:41;71087.25;;;42.51;21.16
6835;BME280;3455;42.150;24.734;2023-06-10T08:42:23;71228.09;;;43.07;20.92
6835;BME280;3455;42.150;24.734;2023-06-10T08:44:54;71060.50;;;42.26;22.06
6835;BME280;3455;42.150;24.734;2023-06-10T08:47:23;70869.66;;;41.15;22.67
6835;BME280;3455;42.150;24.734;2023-06-10T08:49:50;70835.78;;;41.24;22.02
6835;BME280;3455;42.150;24.734;2023-06-10T08:52:18;71362.84;;;43.65;19.72
6835;BME280;3455;42.150;24.734;2023-06-10T08:54:49;71374.19;;;43.50;19.69
6835;BME280;3455;42.150;24.734;2023-06-10T08:57:18;71545.78;;;44.50;18.48
6835;BME280;3455;42.150;24.734;2023-06-10T08:59:47;71809.53;;;45.45;17.73
6835;BME280;3455;42.150;24.734;2023-06-10T09:02:15;71704.47;;;45.13;18.07
6835;BME280;3455;42.150;24.734;2023-06-10T09:04:46;70702.13;;;40.62;20.99
6835;BME280;3455;42.150;24.734;2023-06-10T09:07:13;70435.31;;;39.18;23.20
6835;BME280;3455;42.150;24.734;2023-06-10T09:09:42;70508.81;;;39.65;22.62
6835;BME280;3455;42.150;24.734;2023-06-10T09:12:09;70459.03;;;39.49;22.35
6835;BME280;3455;42.150;24.734;2023-06-10T09:14:36;70368.38;;;38.76;23.27
6835;BME280;3455;42.150;24.734;2023-06-10T09:17:03;70157.13;;;38.04;23.16
6835;BME280;3455;42.150;24.734;2023-06-10T09:19:32;70326.06;;;38.60;21.72
6835;BME280;3455;42.150;24.734;2023-06-10T09:21:59;70373.22;;;38.85;21.88
6835;BME280;3455;42.150;24.734;2023-06-10T09:24:26;70340.69;;;38.75;21.79
6835;BME280;3455;42.150;24.734;2023-06-10T09:27:02;70104.38;;;37.72;23.17
6835;BME280;3455;42.150;24.734;2023-06-10T09:29:29;70578.88;;;39.93;21.41
6835;BME280;3455;42.150;24.734;2023-06-10T09:31:55;70494.09;;;39.66;23.73
6835;BME280;3455;42.150;24.734;2023-06-10T09:34:25;70313.97;;;38.61;25.15
6835;BME280;3455;42.150;24.734;2023-06-10T09:36:54;70109.97;;;37.74;26.24
6835;BME280;3455;42.150;24.734;2023-06-10T09:39:21;70122.78;;;37.63;26.22
6835;BME280;3455;42.150;24.734;2023-06-10T09:41:48;70215.28;;;38.15;26.26
6835;BME280;3455;42.150;24.734;2023-06-10T09:44:15;69768.81;;;35.82;29.68
6835;BME280;3455;42.150;24.734;2023-06-10T09:46:44;69995.69;;;36.92;28.75
6835;BME280;3455;42.150;24.734;2023-06-10T09:49:12;70013.00;;;37.11;28.46
6835;BME280;3455;42.150;24.734;2023-06-10T09:51:49;70092.56;;;37.25;27.56
6835;BME280;3455;42.150;24.734;2023-06-10T09:54:17;70257.59;;;38.31;26.64
6835;BME280;3455;42.150;24.734;2023-06-10T09:56:47;70168.09;;;37.86;26.96
6835;BME280;3455;42.150;24.734;2023-06-10T09:59:14;69886.56;;;36.57;28.11
6835;BME280;3455;42.150;24.734;2023-06-10T10:01:41;69955.28;;;37.02;26.99
6835;BME280;3455;42.150;24.734;2023-06-10T10:04:08;70018.28;;;37.11;27.19
6835;BME280;3455;42.150;24.734;2023-06-10T10:06:36;69999.16;;;37.31;26.40
6835;BME280;3455;42.150;24.734;2023-06-10T10:09:03;70214.47;;;38.21;26.31
6835;BME280;3455;42.150;24.734;2023-06-10T10:11:33;70271.81;;;38.59;25.96
6835;BME280;3455;42.150;24.734;2023-06-10T10:14:03;70653.94;;;40.39;23.67
6835;BME280;3455;42.150;24.734;2023-06-10T10:16:35;70958.78;;;41.77;22.28
6835;BME280;3455;42.150;24.734;2023-06-10T10:19:07;71000.78;;;42.13;22.27
6835;BME280;3455;42.150;24.734;2023-06-10T10:21:38;71225.09;;;43.05;20.39
6835;BME280;3455;42.150;24.734;2023-06-10T10:24:11;71389.84;;;43.63;20.16
6835;BME280;3455;42.150;24.734;2023-06-10T10:26:40;71232.16;;;43.02;21.39
6835;BME280;3455;42.150;24.734;2023-06-10T10:29:11;70567.66;;;39.93;23.37
6835;BME280;3455;42.150;24.734;2023-06-10T10:31:42;70546.19;;;39.79;23.85
6835;BME280;3455;42.150;24.734;2023-06-10T10:34:12;70701.59;;;40.25;23.46
6835;BME280;3455;42.150;24.734;2023-06-10T10:36:40;70622.31;;;40.17;23.87
6835;BME280;3455;42.150;24.734;2023-06-10T10:39:08;70612.41;;;40.26;23.65
6835;BME280;3455;42.150;24.734;2023-06-10T10:41:36;70695.38;;;40.43;23.24
6835;BME280;3455;42.150;24.734;2023-06-10T10:44:05;70733.59;;;40.71;23.07
6835;BME280;3455;42.150;24.734;2023-06-10T10:46:42;70887.91;;;41.49;21.94
6835;BME280;3455;42.150;24.734;2023-06-10T10:49:10;70738.28;;;40.71;22.78
6835;BME280;3455;42.150;24.734;2023-06-10T10:51:54;70521.94;;;39.76;23.20
6835;BME280;3455;42.150;24.734;2023-06-10T10:54:28;70414.72;;;39.23;23.86
6835;BME280;3455;42.150;24.734;2023-06-10T10:57:15;70285.47;;;38.46;24.59
6835;BME280;3455;42.150;24.734;2023-06-10T10:59:52;70061.50;;;37.35;25.32
6835;BME280;3455;42.150;24.734;2023-06-10T11:02:33;70113.13;;;37.66;25.54
6835;BME280;3455;42.150;24.734;2023-06-10T11:05:01;69981.69;;;36.98;26.79
6835;BME280;3455;42.150;24.734;2023-06-10T11:07:31;70026.41;;;37.50;27.03
6835;BME280;3455;42.150;24.734;2023-06-10T11:09:59;70038.91;;;37.36;27.13
6835;BME280;3455;42.150;24.734;2023-06-10T11:12:26;70076.06;;;37.66;26.95
6835;BME280;3455;42.150;24.734;2023-06-10T11:14:59;70041.66;;;37.45;26.70
6835;BME280;3455;42.150;24.734;2023-06-10T11:17:26;69957.66;;;37.05;27.15
6835;BME280;3455;42.150;24.734;2023-06-10T11:19:53;69931.94;;;36.69;28.03
6835;BME280;3455;42.150;24.734;2023-06-10T11:22:20;69924.34;;;36.71;26.56
6835;BME280;3455;42.150;24.734;2023-06-10T11:24:50;69900.81;;;36.69;26.98
6835;BME280;3455;42.150;24.734;2023-06-10T11:27:18;69856.25;;;36.51;27.30
6835;BME280;3455;42.150;24.734;2023-06-10T11:30:18;70375.75;;;38.96;23.92
6835;BME280;3455;42.150;24.734;2023-06-10T11:32:45;70645.03;;;40.36;22.42
6835;BME280;3455;42.150;24.734;2023-06-10T11:35:18;70763.72;;;40.90;21.87
6835;BME280;3455;42.150;24.734;2023-06-10T11:37:46;70888.50;;;41.49;21.65
6835;BME280;3455;42.150;24.734;2023-06-10T11:40:13;70996.69;;;41.98;20.52
6835;BME280;3455;42.150;24.734;2023-06-10T11:42:40;71116.47;;;42.62;19.87
6835;BME280;3455;42.150;24.734;2023-06-10T11:45:14;70963.16;;;41.95;20.83
6835;BME280;3455;42.150;24.734;2023-06-10T11:47:55;70907.47;;;41.52;20.58
6835;BME280;3455;42.150;24.734;2023-06-10T11:50:28;70909.34;;;41.58;21.40
6835;BME280;3455;42.150;24.734;2023-06-10T11:52:55;71079.69;;;42.21;20.06
6835;BME280;3455;42.150;24.734;2023-06-10T11:55:24;71268.59;;;43.19;19.42
6835;BME280;3455;42.150;24.734;2023-06-10T11:57:51;70879.06;;;41.50;21.14
6835;BME280;3455;42.150;24.734;2023-06-10T12:00:24;70805.16;;;41.14;21.45
6835;BME280;3455;42.150;24.734;2023-06-10T12:02:57;70735.91;;;40.68;22.62
6835;BME280;3455;42.150;24.734;2023-06-10T12:05:24;71027.56;;;42.23;20.67
6835;BME280;3455;42.150;24.734;2023-06-10T12:08:08;70963.53;;;41.77;21.21
6835;BME280;3455;42.150;24.734;2023-06-10T12:10:40;70834.38;;;41.30;22.00
6835;BME280;3455;42.150;24.734;2023-06-10T12:13:07;70823.88;;;40.98;21.42
6835;BME280;3455;42.150;24.734;2023-06-10T12:15:36;71012.09;;;41.98;21.33
6835;BME280;3455;42.150;24.734;2023-06-10T12:18:03;70998.38;;;42.11;20.77
6835;BME280;3455;42.150;24.734;2023-06-10T12:20:31;71052.03;;;42.34;20.27
6835;BME280;3455;42.150;24.734;2023-06-10T12:22:59;70966.97;;;42.12;20.46
6835;BME280;3455;42.150;24.734;2023-06-10T12:25:28;70916.00;;;41.48;21.21
6835;BME280;3455;42.150;24.734;2023-06-10T12:27:56;70842.56;;;41.23;21.48
6835;BME280;3455;42.150;24.734;2023-06-10T12:30:24;70978.53;;;41.90;21.67
6835;BME280;3455;42.150;24.734;2023-06-10T12:32:53;70657.31;;;40.28;21.87
6835;BME280;3455;42.150;24.734;2023-06-10T12:35:21;70379.53;;;39.13;23.64
6835;BME280;3455;42.150;24.734;2023-06-10T12:37:57;70336.69;;;38.85;23.82
6835;BME280;3455;42.150;24.734;2023-06-10T12:40:28;70315.41;;;38.81;23.80
6835;BME280;3455;42.150;24.734;2023-06-10T12:42:57;70232.41;;;38.41;24.93
6835;BME280;3455;42.150;24.734;2023-06-10T12:45:27;70341.06;;;39.03;24.45
6835;BME280;3455;42.150;24.734;2023-06-10T12:48:06;70330.72;;;38.80;24.73
6835;BME280;3455;42.150;24.734;2023-06-10T12:50:34;70239.47;;;38.43;24.66
6835;BME280;3455;42.150;24.734;2023-06-10T12:53:02;70083.94;;;37.40;25.64
6835;BME280;3455;42.150;24.734;2023-06-10T12:55:29;70120.78;;;37.68;25.85
6835;BME280;3455;42.150;24.734;2023-06-10T12:57:56;70071.16;;;37.52;25.34
6835;BME280;3455;42.150;24.734;2023-06-10T13:00:23;70131.25;;;37.58;25.99
6835;BME280;3455;42.150;24.734;2023-06-10T13:02:51;69985.75;;;37.17;25.68
6835;BME280;3455;42.150;24.734;2023-06-10T13:05:20;69843.34;;;36.54;27.45
6835;BME280;3455;42.150;24.734;2023-06-10T13:07:47;69795.22;;;36.28;27.30
6835;BME280;3455;42.150;24.734;2023-06-10T13:10:14;69792.19;;;36.21;26.84
6835;BME280;3455;42.150;24.734;2023-06-10T13:12:41;69715.38;;;35.77;27.62
6835;BME280;3455;42.150;24.734;2023-06-10T13:15:09;69782.56;;;36.03;27.54
6835;BME280;3455;42.150;24.734;2023-06-10T13:17:36;69819.13;;;36.17;27.08